createdAt,value
2018-07-22T08:08:12.620Z,99.90
2018-07-22T08:10:42.998Z,99.90
2018-07-22T08:13:13.266Z,99.90
2018-07-22T08:15:41.970Z,99.90
2018-07-22T08:18:11.412Z,99.60
2018-07-22T08:20:40.006Z,98.60
2018-07-22T08:23:08.663Z,97.80
2018-07-22T08:25:38.192Z,96.90
2018-07-22T08:28:06.754Z,95.30
2018-07-22T08:30:35.910Z,94.40
2018-07-22T08:33:04.497Z,94.60
2018-07-22T08:35:33.144Z,93.80
2018-07-22T08:38:01.711Z,93.20
2018-07-22T08:40:30.322Z,93.10
2018-07-22T08:42:58.952Z,93.50
2018-07-22T08:47:56.842Z,92.60
2018-07-22T08:50:25.784Z,91.90
2018-07-22T08:52:54.457Z,91.30
2018-07-22T08:55:24.541Z,83.90
2018-07-22T08:57:53.558Z,85.20
2018-07-22T09:00:22.555Z,83.40
2018-07-22T09:02:51.264Z,81.40
2018-07-22T09:05:19.917Z,81.30
2018-07-22T09:07:49.032Z,80.10
2018-07-22T09:10:17.648Z,78.00
2018-07-22T09:12:46.237Z,79.20
2018-07-22T09:15:15.692Z,78.50
2018-07-22T09:17:45.427Z,76.50
2018-07-22T09:20:16.382Z,74.00
2018-07-22T09:22:46.619Z,73.30
2018-07-22T09:25:15.267Z,73.60
2018-07-22T09:27:44.406Z,72.50
2018-07-22T09:30:13.106Z,72.00
2018-07-22T09:32:43.162Z,72.00
2018-07-22T09:35:13.833Z,69.30
2018-07-22T09:37:42.367Z,68.50
2018-07-22T09:40:10.949Z,67.70
2018-07-22T09:42:39.572Z,67.60
2018-07-22T09:45:09.285Z,66.00
2018-07-22T09:47:37.852Z,65.50
2018-07-22T09:50:06.366Z,64.50
2018-07-22T09:52:35.847Z,64.00
2018-07-22T09:55:04.430Z,62.30
2018-07-22T09:57:34.774Z,60.10
2018-07-22T10:00:04.450Z,60.70
2018-07-22T10:02:33.172Z,59.90
2018-07-22T10:05:03.593Z,60.10
2018-07-22T10:07:33.906Z,61.00
2018-07-22T10:10:02.436Z,60.00
2018-07-22T10:12:31.085Z,59.20
2018-07-22T10:15:10.298Z,58.30
2018-07-22T10:17:40.188Z,58.70
2018-07-22T10:20:09.412Z,58.10
2018-07-22T10:22:39.126Z,58.60
2018-07-22T10:25:07.792Z,59.10
2018-07-22T10:27:36.322Z,58.80
2018-07-22T10:30:05.993Z,59.10
2018-07-22T10:32:35.572Z,59.00
2018-07-22T10:35:04.430Z,59.70
2018-07-22T10:37:33.003Z,59.10
2018-07-22T10:40:01.887Z,59.60
2018-07-22T10:42:30.504Z,58.80
2018-07-22T10:44:59.168Z,58.70
2018-07-22T10:47:27.797Z,58.90
2018-07-22T10:49:56.396Z,58.40
2018-07-22T10:52:25.703Z,58.40
2018-07-22T10:54:54.242Z,58.20
2018-07-22T10:57:22.761Z,57.70
2018-07-22T10:59:51.304Z,58.10
2018-07-22T11:02:19.886Z,57.20
2018-07-22T11:04:50.276Z,56.90
2018-07-22T11:07:18.901Z,56.20
2018-07-22T11:09:47.463Z,56.00
2018-07-22T11:12:16.032Z,55.60
2018-07-22T11:14:45.556Z,55.80
2018-07-22T11:17:14.110Z,54.00
2018-07-22T11:19:42.693Z,53.60
2018-07-22T11:22:12.422Z,53.20
2018-07-22T11:24:40.965Z,52.90
2018-07-22T11:27:09.659Z,52.60
2018-07-22T11:29:38.928Z,51.70
2018-07-22T11:32:07.645Z,50.60
2018-07-22T11:34:36.290Z,50.30
2018-07-22T11:37:04.850Z,49.00
2018-07-22T11:39:34.680Z,48.60
2018-07-22T11:42:03.313Z,46.70
2018-07-22T11:44:31.906Z,46.60
2018-07-22T11:47:02.123Z,46.50
2018-07-22T11:49:30.610Z,46.50
2018-07-22T11:51:59.338Z,46.80
2018-07-22T11:54:27.851Z,46.50
2018-07-22T11:56:56.360Z,47.40
2018-07-22T11:59:24.871Z,47.00
2018-07-22T12:01:54.051Z,46.10
2018-07-22T12:04:23.118Z,46.10
2018-07-22T12:06:52.648Z,46.60
2018-07-22T12:09:21.165Z,46.70
2018-07-22T12:11:49.794Z,47.40
2018-07-22T12:14:18.383Z,47.30
2018-07-22T12:16:46.967Z,46.80
2018-07-22T12:19:15.640Z,46.00
2018-07-22T12:21:44.277Z,46.40
2018-07-22T12:24:12.778Z,46.20
2018-07-22T12:26:42.022Z,44.70
2018-07-22T12:29:10.626Z,44.40
2018-07-22T12:31:39.194Z,43.60
2018-07-22T12:34:07.849Z,44.40
2018-07-22T12:36:36.775Z,44.00
2018-07-22T12:39:10.532Z,44.60
2018-07-22T12:41:39.213Z,45.10
2018-07-22T12:44:07.856Z,44.50
2018-07-22T12:46:36.587Z,45.00
2018-07-22T12:49:05.418Z,44.10
2018-07-22T12:51:35.161Z,43.30
2018-07-22T12:54:04.003Z,42.90
2018-07-22T12:56:32.616Z,43.00
2018-07-22T12:59:01.209Z,42.50
2018-07-22T13:01:29.807Z,43.00
2018-07-22T13:04:00.133Z,43.00
2018-07-22T13:06:29.636Z,43.60
2018-07-22T13:08:58.171Z,43.60
2018-07-22T13:11:27.249Z,43.40
2018-07-22T13:13:55.826Z,42.00
2018-07-22T13:16:27.080Z,40.30
2018-07-22T13:18:56.203Z,40.40
2018-07-22T13:21:25.388Z,40.90
2018-07-22T13:23:54.770Z,41.20
2018-07-22T13:26:23.854Z,41.80
2018-07-22T13:28:52.415Z,41.70
2018-07-22T13:31:20.995Z,41.70
2018-07-22T13:33:49.572Z,42.10
2018-07-22T13:36:18.153Z,42.10
2018-07-22T13:38:47.335Z,42.00
2018-07-22T13:41:15.988Z,42.00
2018-07-22T13:43:44.516Z,42.30
2018-07-22T13:46:13.156Z,42.10
2018-07-22T13:48:41.786Z,40.70
2018-07-22T13:51:11.197Z,40.00
2018-07-22T13:53:39.718Z,39.70
2018-07-22T13:56:08.335Z,39.80
2018-07-22T13:58:37.648Z,39.80
2018-07-22T14:01:06.958Z,39.70
2018-07-22T14:03:35.634Z,34.50
2018-07-22T14:06:04.438Z,30.30
2018-07-22T14:08:33.062Z,30.00
2018-07-22T14:11:02.264Z,29.50
2018-07-22T14:13:30.973Z,29.60
2018-07-22T14:16:00.130Z,30.00
2018-07-22T14:18:29.527Z,30.40
2018-07-22T14:20:58.072Z,31.40
2018-07-22T14:23:26.720Z,32.00
2018-07-22T14:25:55.314Z,33.20
2018-07-22T14:28:23.948Z,33.30
2018-07-22T14:30:52.680Z,33.60
2018-07-22T14:33:21.346Z,34.00
2018-07-22T14:35:50.472Z,34.70
2018-07-22T14:38:18.994Z,35.70
2018-07-22T14:40:47.599Z,36.10
2018-07-22T14:43:16.188Z,36.20
2018-07-22T14:45:44.766Z,33.20
2018-07-22T14:48:13.967Z,28.10
2018-07-22T14:50:42.477Z,25.80
2018-07-22T14:53:11.033Z,26.80
2018-07-22T14:55:39.545Z,27.60
2018-07-22T14:58:08.078Z,29.00
2018-07-22T15:00:36.600Z,30.00
2018-07-22T15:03:05.807Z,29.60
2018-07-22T15:05:34.375Z,30.00
2018-07-22T15:08:02.899Z,30.10
2018-07-22T15:10:31.447Z,30.40
2018-07-22T15:12:59.975Z,29.50
2018-07-22T15:15:28.600Z,29.30
2018-07-22T15:17:58.106Z,28.80
2018-07-22T15:20:27.307Z,28.80
2018-07-22T15:22:55.927Z,27.60
2018-07-22T15:25:24.544Z,26.40
2018-07-22T15:27:53.736Z,25.90
2018-07-22T15:30:22.283Z,25.60
2018-07-22T15:32:51.465Z,24.50
2018-07-22T15:35:20.036Z,24.30
2018-07-22T15:37:48.510Z,23.60
2018-07-22T15:40:17.442Z,23.00
2018-07-22T15:42:46.110Z,23.40
2018-07-22T15:45:14.665Z,25.20
2018-07-22T15:47:43.598Z,26.60
2018-07-22T15:50:12.143Z,27.60
2018-07-22T15:52:40.706Z,29.00
2018-07-22T15:55:09.213Z,30.00
2018-07-22T15:57:38.611Z,31.30
2018-07-22T16:00:10.124Z,32.40
2018-07-22T16:02:39.022Z,33.40
2018-07-22T16:05:07.543Z,34.40
2018-07-22T16:07:36.587Z,35.10
2018-07-22T16:10:05.796Z,35.90
2018-07-22T16:12:34.480Z,36.40
2018-07-22T16:15:03.090Z,36.80
2018-07-22T16:17:32.338Z,37.30
2018-07-22T16:20:00.877Z,37.40
2018-07-22T16:22:29.542Z,37.50
2018-07-22T16:24:58.102Z,36.10
2018-07-22T16:27:26.806Z,36.40
2018-07-22T16:29:55.464Z,36.10
2018-07-22T16:32:24.117Z,35.80
2018-07-22T16:34:52.720Z,35.20
2018-07-22T16:37:21.305Z,34.30
2018-07-22T16:39:49.905Z,33.40
2018-07-22T16:42:18.610Z,32.90
2018-07-22T16:44:47.133Z,32.70
2018-07-22T16:47:15.984Z,33.30
2018-07-22T16:49:44.563Z,34.00
2018-07-22T16:52:13.692Z,34.00
2018-07-22T16:54:42.289Z,33.70
2018-07-22T16:57:10.841Z,33.50
2018-07-22T16:59:39.441Z,33.90
2018-07-22T17:02:08.026Z,35.00
2018-07-22T17:04:36.505Z,35.40
2018-07-22T17:07:05.149Z,36.50
2018-07-22T17:09:33.767Z,37.60
2018-07-22T17:12:02.491Z,37.90
2018-07-22T17:14:31.076Z,38.40
2018-07-22T17:16:59.656Z,39.30
2018-07-22T17:19:29.305Z,40.10
2018-07-22T17:21:57.967Z,41.20
2018-07-22T17:24:27.407Z,42.40
2018-07-22T17:26:55.963Z,43.30
2018-07-22T17:29:24.535Z,44.20
2018-07-22T17:31:53.190Z,44.50
2018-07-22T17:34:21.697Z,45.50
2018-07-22T17:36:50.263Z,46.10
2018-07-22T17:39:18.761Z,46.50
2018-07-22T17:41:47.306Z,47.60
2018-07-22T17:44:15.817Z,47.40
2018-07-22T17:46:44.314Z,47.70
2018-07-22T17:49:12.808Z,47.70
2018-07-22T17:51:41.330Z,47.50
2018-07-22T17:54:09.903Z,47.10
2018-07-22T17:56:38.384Z,46.90
2018-07-22T17:59:06.985Z,46.50
2018-07-22T18:01:35.646Z,46.30
2018-07-22T18:04:04.237Z,46.10
2018-07-22T18:06:32.802Z,45.90
2018-07-22T18:09:01.366Z,45.30
2018-07-22T18:11:30.432Z,45.70
2018-07-22T18:14:01.845Z,46.50
2018-07-22T18:19:02.693Z,47.20
2018-07-22T18:21:33.886Z,47.50
2018-07-22T18:24:04.545Z,47.80
2018-07-22T18:26:33.363Z,48.00
2018-07-22T18:29:03.567Z,48.40
2018-07-22T18:31:34.247Z,48.90
2018-07-22T18:34:02.959Z,49.20
2018-07-22T18:36:32.104Z,49.70
2018-07-22T18:39:00.696Z,50.20
2018-07-22T18:41:29.933Z,50.40
2018-07-22T18:44:00.505Z,50.80
2018-07-22T18:46:31.206Z,51.50
2018-07-22T18:49:01.612Z,51.70
2018-07-22T18:51:31.228Z,52.10
2018-07-22T18:54:00.100Z,52.90
2018-07-22T18:58:57.562Z,53.70
2018-07-22T19:01:27.360Z,54.10
2018-07-22T19:03:57.185Z,54.60
2018-07-22T19:06:28.635Z,54.50
2018-07-22T19:08:58.221Z,55.00
2018-07-22T19:11:30.715Z,55.30
2018-07-22T19:13:59.600Z,55.60
2018-07-22T19:16:29.559Z,56.00
2018-07-22T19:19:13.374Z,56.40
2018-07-22T19:21:42.872Z,56.70
2018-07-22T19:24:11.860Z,57.20
2018-07-22T19:26:41.718Z,57.70
2018-07-22T19:29:13.092Z,58.50
2018-07-22T19:31:45.272Z,59.40
2018-07-22T19:34:14.777Z,60.20
2018-07-22T19:36:44.077Z,61.30
2018-07-22T19:39:14.591Z,61.80
2018-07-22T19:41:44.271Z,62.20
2018-07-22T19:44:14.365Z,62.50
2018-07-22T19:46:43.404Z,63.20
2018-07-22T19:49:13.150Z,63.50
2018-07-22T19:51:45.704Z,64.00
2018-07-22T19:54:16.287Z,63.90
2018-07-22T19:56:48.184Z,64.20
2018-07-22T19:59:53.425Z,64.00
2018-07-22T20:03:03.365Z,64.60
2018-07-22T20:05:32.718Z,64.70
2018-07-22T20:08:08.524Z,65.20
2018-07-22T20:10:57.415Z,65.50
2018-07-22T20:13:26.762Z,65.70
2018-07-22T20:15:57.426Z,65.80
2018-07-22T20:21:10.112Z,66.20
2018-07-22T20:23:39.011Z,66.10
2018-07-22T20:26:08.315Z,66.60
2018-07-22T20:28:37.112Z,66.90
2018-07-22T20:31:07.118Z,67.20
2018-07-22T20:33:37.451Z,67.40
2018-07-22T20:36:07.686Z,67.60
2018-07-22T20:38:37.078Z,68.40
2018-07-22T20:41:07.783Z,68.90
2018-07-22T20:43:37.900Z,69.50
2018-07-22T20:46:08.548Z,69.80
2018-07-22T20:51:06.901Z,70.30
2018-07-22T20:53:38.184Z,70.60
2018-07-22T20:56:06.994Z,70.80
2018-07-22T20:58:36.557Z,70.90
2018-07-22T21:01:06.787Z,71.10
2018-07-22T21:03:35.625Z,71.20
2018-07-22T21:06:05.268Z,71.80
2018-07-22T21:08:34.545Z,72.20
2018-07-22T21:11:04.423Z,73.10
2018-07-22T21:13:34.890Z,73.90
2018-07-22T21:16:04.983Z,74.70
2018-07-22T21:18:34.977Z,75.40
2018-07-22T21:21:03.603Z,75.60
2018-07-22T21:23:33.904Z,76.60
2018-07-22T21:26:04.132Z,76.70
2018-07-22T21:28:32.887Z,76.40
2018-07-22T21:31:01.556Z,76.30
2018-07-22T21:33:31.246Z,76.60
2018-07-22T21:35:59.806Z,76.80
2018-07-22T21:38:30.116Z,77.00
2018-07-22T21:41:00.857Z,77.10
2018-07-22T21:43:30.709Z,77.60
2018-07-22T21:46:00.003Z,77.80
2018-07-22T21:48:31.244Z,77.90
2018-07-22T21:51:00.006Z,79.10
2018-07-22T21:53:29.669Z,78.20
2018-07-22T21:55:59.565Z,78.90
2018-07-22T21:58:29.217Z,78.10
2018-07-22T22:01:01.498Z,78.40
2018-07-22T22:03:30.679Z,78.60
2018-07-22T22:05:59.634Z,78.80
2018-07-22T22:08:29.102Z,79.10
2018-07-22T22:11:00.914Z,79.40
2018-07-22T22:13:31.104Z,79.50
2018-07-22T22:16:00.346Z,79.80
2018-07-22T22:18:30.160Z,80.10
2018-07-22T22:20:58.884Z,80.50
2018-07-22T22:23:30.348Z,80.90
2018-07-22T22:25:58.935Z,81.40
2018-07-22T22:28:32.176Z,81.80
2018-07-22T22:31:01.357Z,81.90
2018-07-22T22:33:30.596Z,82.00
2018-07-22T22:36:01.595Z,82.30
2018-07-22T22:38:30.456Z,82.60
2018-07-22T22:41:01.823Z,83.30
2018-07-22T22:43:30.689Z,83.20
